地図

経路データ

SID SEASON NUMBER BASIN SUBBASIN NAME ISO_TIME NATURE LAT LON WMO_WIND WMO_PRES WMO_AGENCY TRACK_TYPE DIST2LAND LANDFALL IFLAG USA_AGENCY USA_ATCF_ID USA_LAT USA_LON USA_RECORD USA_STATUS USA_WIND USA_PRES USA_SSHS USA_R34_NE USA_R34_SE USA_R34_SW USA_R34_NW USA_R50_NE USA_R50_SE USA_R50_SW USA_R50_NW USA_R64_NE USA_R64_SE USA_R64_SW USA_R64_NW USA_POCI USA_ROCI USA_RMW USA_EYE TOKYO_LAT TOKYO_LON TOKYO_GRADE TOKYO_WIND TOKYO_PRES TOKYO_R50_DIR TOKYO_R50_LONG TOKYO_R50_SHORT TOKYO_R30_DIR TOKYO_R30_LONG TOKYO_R30_SHORT TOKYO_LAND CMA_LAT CMA_LON CMA_CAT CMA_WIND CMA_PRES HKO_LAT HKO_LON HKO_CAT HKO_WIND HKO_PRES NEWDELHI_LAT NEWDELHI_LON NEWDELHI_GRADE NEWDELHI_WIND NEWDELHI_PRES NEWDELHI_CI NEWDELHI_DP NEWDELHI_POCI REUNION_LAT REUNION_LON REUNION_TYPE REUNION_WIND REUNION_PRES REUNION_TNUM REUNION_CI REUNION_RMW REUNION_R34_NE REUNION_R34_SE REUNION_R34_SW REUNION_R34_NW REUNION_R50_NE REUNION_R50_SE REUNION_R50_SW REUNION_R50_NW REUNION_R64_NE REUNION_R64_SE REUNION_R64_SW REUNION_R64_NW BOM_LAT BOM_LON BOM_TYPE BOM_WIND BOM_PRES BOM_TNUM BOM_CI BOM_RMW BOM_R34_NE BOM_R34_SE BOM_R34_SW BOM_R34_NW BOM_R50_NE BOM_R50_SE BOM_R50_SW BOM_R50_NW BOM_R64_NE BOM_R64_SE BOM_R64_SW BOM_R64_NW BOM_ROCI BOM_POCI BOM_EYE BOM_POS_METHOD BOM_PRES_METHOD NADI_LAT NADI_LON NADI_CAT NADI_WIND NADI_PRES WELLINGTON_LAT WELLINGTON_LON WELLINGTON_WIND WELLINGTON_PRES DS824_LAT DS824_LON DS824_STAGE DS824_WIND DS824_PRES TD9636_LAT TD9636_LON TD9636_STAGE TD9636_WIND TD9636_PRES TD9635_LAT TD9635_LON TD9635_WIND TD9635_PRES TD9635_ROCI NEUMANN_LAT NEUMANN_LON NEUMANN_CLASS NEUMANN_WIND NEUMANN_PRES MLC_LAT MLC_LON MLC_CLASS MLC_WIND MLC_PRES USA_GUST BOM_GUST BOM_GUST_PER REUNION_GUST REUNION_GUST_PER USA_SEAHGT USA_SEARAD_NE USA_SEARAD_SE USA_SEARAD_SW USA_SEARAD_NW STORM_SPEED STORM_DIR
1966003S10075 1966 2 SI MM DENISE 1966-01-02 18:00:00 TS -10.0000 75.4000 main 1872 1872 O________OO___ jtwc_sh SH121966 -10.0000 75.4000 -1 -10.0000 75.4000 TC -10.0000 75.4000 7 12 238
1966003S10075 1966 2 SI MM DENISE 1966-01-02 21:00:00 TS -10.3043 74.8973 main 1922 1922 P________PP___ SH121966 -10.2952 74.9001 -1 -10.2952 74.9001 TC -10.3225 74.8916 7 12 238
1966003S10075 1966 2 SI MM DENISE 1966-01-03 00:00:00 TS -10.6119 74.3954 main 1971 1971 O________OP___ jtwc_sh SH121966 -10.6000 74.4000 -1 -10.6000 74.4000 TC -10.6358 74.3861 7 12 238
1966003S10075 1966 2 SI MM DENISE 1966-01-03 03:00:00 TS -10.9203 73.8958 main 2016 1980 P________PP___ SH121966 -10.9149 73.9000 -1 -10.9149 73.9000 TC -10.9311 73.8876 7 9 231
1966003S10075 1966 2 SI MM DENISE 1966-01-03 06:00:00 TS -11.1857 73.6857 reunion main 1980 1940 O____O___OO_O_ jtwc_sh SH121966 -11.2000 73.4000 -1 -11.1000 75.4000 3 9.90000 -11.2000 73.4000 TC 25 -11.2000 73.4000 1 -11.1000 75.4000 TC 35 7 225
1966003S10075 1966 2 SI MM DENISE 1966-01-03 09:00:00 TS -11.4233 73.3801 main 1940 1891 P____P___PP_P_ SH121966 -11.4074 72.8923 -1 -11.4402 74.8104 3 -11.4074 72.8923 TC 25 -11.4380 72.9254 1 -11.4402 74.8104 TC 35 8 235
1966003S10075 1966 2 SI MM DENISE 1966-01-03 12:00:00 TS -11.6460 73.0126 reunion main 1891 1842 O____O___OP_O_ jtwc_sh SH121966 -11.6000 72.4000 -1 -11.7000 74.2000 99 9.90000 -11.6000 72.4000 TC 25 -11.6570 72.4567 1 -11.7000 74.2000 TC 35 9 241
1966003S10075 1966 2 SI MM DENISE 1966-01-03 15:00:00 TS -11.8404 72.5998 main 1842 1784 P____P___PP_P_ SH121966 -11.8349 71.9499 -1 -11.8299 73.5573 99 -11.8349 71.9499 TC 25 -11.8724 71.9847 1 -11.8299 73.5573 TC 35 10 248
1966003S10075 1966 2 SI MM DENISE 1966-01-03 18:00:00 TS -12.0200 72.0600 reunion main 1784 1717 O____O___OO_O_ jtwc_sh SH121966 -12.1000 71.5000 -1 -11.9000 72.9000 99 9.90000 -12.1000 71.5000 TC 25 -12.1000 71.5000 1 -11.9000 72.9000 TC 35 11 250
1966003S10075 1966 2 SI MM DENISE 1966-01-03 21:00:00 TS -12.2238 71.5092 main 1717 1659 P____P___PP_P_ SH121966 -12.3999 71.0150 -1 -11.9773 72.2573 99 -12.3999 71.0150 TC 25 -12.3643 71.0014 1 -11.9773 72.2573 TC 37 12 249
1966003S10075 1966 2 SI MM DENISE 1966-01-04 00:00:00 TS -12.4484 70.9374 reunion main 1650 1586 O____O___OP_O_ jtwc_sh SH121966 -12.7000 70.5000 -1 -12.1000 71.6000 99 9.90000 -12.7000 70.5000 TC 25 -12.6420 70.4872 1 -12.1000 71.6000 TC 40 12 247
1966003S10075 1966 2 SI MM DENISE 1966-01-04 03:00:00 TS -12.7017 70.3339 main 1577 1520 P____P___PP_P_ SH121966 -12.9574 69.9648 -1 -12.3350 70.8927 99 -12.9574 69.9648 TC 30 -12.9236 69.9544 1 -12.3350 70.8927 TC 42 13 247
1966003S10075 1966 2 SI MM DENISE 1966-01-04 06:00:00 TS -12.9600 69.7200 reunion main 1505 1447 O____O___OO_O_ jtwc_sh SH121966 -13.2000 69.4000 -1 -12.6000 70.2000 3 9.90000 -13.2000 69.4000 TC 35 -13.2000 69.4000 2 -12.6000 70.2000 TC 45 13 248
1966003S10075 1966 2 SI MM DENISE 1966-01-04 09:00:00 TS -13.1844 69.1219 main 1438 1381 P____P___PP_P_ SH121966 -13.4499 68.8074 -1 -12.7848 69.5847 3 -13.4499 68.8074 TC 35 -13.4529 68.8252 2 -12.7848 69.5847 TC 45 13 248
1966003S10075 1966 2 SI MM DENISE 1966-01-04 12:00:00 TS -13.4199 68.5259 reunion main 1372 1308 O____O___OP_O_ jtwc_sh SH121966 -13.7000 68.2000 -1 -13.0000 69.0000 99 9.90000 -13.7000 68.2000 TC 35 -13.6996 68.2293 2 -13.0000 69.0000 TC 45 13 246
1966003S10075 1966 2 SI MM DENISE 1966-01-04 15:00:00 TS -13.7062 67.9297 main 1299 1236 P____P___PP_P_ SH121966 -13.9498 67.6073 -1 -13.3423 68.4076 99 -13.9498 67.6073 TC 35 -13.9465 67.6188 2 -13.3423 68.4076 TC 47 13 244
1966003S10075 1966 2 SI MM DENISE 1966-01-04 18:00:00 TS -14.0000 67.3200 reunion main 1227 1161 O____O___OO_O_ jtwc_sh SH121966 -14.2000 67.0000 -1 -13.7000 67.8000 99 9.90000 -14.2000 67.0000 TC 35 -14.2000 67.0000 2 -13.7000 67.8000 TC 50 13 246
1966003S10075 1966 2 SI MM DENISE 1966-01-04 21:00:00 TS -14.2513 66.6738 main 1155 1089 P____P___PP_P_ SH121966 -14.4424 66.3498 -1 -13.9499 67.1497 99 -14.4424 66.3498 TC 35 -14.4717 66.3699 2 -13.9499 67.1497 TC 55 14 248
1966003S10075 1966 2 SI MM DENISE 1966-01-05 00:00:00 TS -14.5100 66.0270 reunion main 1080 1009 O____O___OP_O_ jtwc_sh SH121966 -14.7000 65.7000 -1 -14.2000 66.5000 99 9.90000 -14.7000 65.7000 TC 35 -14.7498 65.7349 2 -14.2000 66.5000 TC 60 14 245
1966003S10075 1966 2 SI MM DENISE 1966-01-05 03:00:00 TS -14.8285 65.4095 main 1009 946 P____P___PP_P_ SH121966 -14.9998 65.0850 -1 -14.5573 65.8851 99 -14.9998 65.0850 TC 35 -15.0280 65.1074 2 -14.5573 65.8851 TC 62 13 242
1966003S10075 1966 2 SI MM DENISE 1966-01-05 06:00:00 TS -15.1400 64.8200 reunion main 937 874 O____O___OO_O_ jtwc_sh SH121966 -15.3000 64.5000 -1 -14.9000 65.3000 4 9.90000 -15.3000 64.5000 TC 35 -15.3000 64.5000 2 -14.9000 65.3000 TC 65 12 244
1966003S10075 1966 2 SI MM DENISE 1966-01-05 09:00:00 TS -15.3716 64.2646 main 874 818 P____P___PP_P_ SH121966 -15.5573 63.9423 -1 -15.0998 64.7495 4 -15.5573 63.9423 TC 35 -15.5441 63.9396 2 -15.0998 64.7495 TC 67 12 247
1966003S10075 1966 2 SI MM DENISE 1966-01-05 12:00:00 TS -15.5968 63.7197 reunion main 810 747 O____O___OP_O_ jtwc_sh SH121966 -15.8000 63.4000 -1 -15.3000 64.2000 99 9.90000 -15.8000 63.4000 TC 35 -15.7837 63.3986 2 -15.3000 64.2000 TC 70 12 245
1966003S10075 1966 2 SI MM DENISE 1966-01-05 15:00:00 TS -15.8681 63.1635 main 747 677 P____P___PP_P_ SH121966 -16.0347 62.8647 -1 -15.6198 63.6149 99 -16.0347 62.8647 TC 35 -16.0316 62.8583 2 -15.6198 63.6149 TC 72 12 242
1966003S10075 1966 2 SI MM DENISE 1966-01-05 18:00:00 TS -16.1800 62.5800 reunion main 677 606 O____O___OO_O_ jtwc_sh SH121966 -16.3000 62.3000 -1 -16.0000 63.0000 99 9.90000 -16.3000 62.3000 TC 35 -16.3000 62.3000 2 -16.0000 63.0000 TC 75 14 240
1966003S10075 1966 2 SI MM DENISE 1966-01-05 21:00:00 TS -16.5380 61.9365 main 598 521 P____P___PP_P_ SH121966 -16.6425 61.6576 -1 -16.3924 62.3573 99 -16.6425 61.6576 TC 35 -16.6202 61.6527 2 -16.3924 62.3573 TC 77 15 240
1966003S10075 1966 2 SI MM DENISE 1966-01-06 00:00:00 TS -16.9117 61.2782 reunion main 521 444 O____O___OP_O_ jtwc_sh SH121966 -17.0000 61.0000 -1 -16.8000 61.7000 99 9.90000 -17.0000 61.0000 TC 35 -16.9584 60.9912 2 -16.8000 61.7000 TC 80 15 240
1966003S10075 1966 2 SI MM DENISE 1966-01-06 03:00:00 TS -17.2795 60.6159 main 437 376 P____P___PP_P_ SH121966 -17.3225 60.3625 -1 -17.2302 60.9978 99 -17.3225 60.3625 TC 35 -17.2922 60.3589 2 -17.2302 60.9978 TC 82 14 240
1966003S10075 1966 2 SI MM DENISE 1966-01-06 06:00:00 TS -17.6000 60.0400 reunion main 369 332 O____O___OO_O_ jtwc_sh SH121966 -17.6000 59.8000 -1 -17.6000 60.4000 4 9.90000 -17.6000 59.8000 TC 35 -17.6000 59.8000 2 -17.6000 60.4000 TC 85 11 240
1966003S10075 1966 2 SI MM DENISE 1966-01-06 09:00:00 TS -17.8214 59.6450 main 325 288 P____P___PP_P_ SH121966 -17.8073 59.3547 -1 -17.8219 60.0769 4 -17.8073 59.3547 TC 35 -17.8486 59.3617 2 -17.8219 60.0769 TC 85 8 239
1966003S10075 1966 2 SI MM DENISE 1966-01-06 12:00:00 TS -18.0142 59.3202 reunion main 288 252 O____O___OP_O_ jtwc_sh SH121966 -18.0000 59.0000 -1 -18.0000 59.8000 99 9.90000 -18.0000 59.0000 TC 35 -18.0712 59.0012 2 -18.0000 59.8000 TC 85 8 237
1966003S10075 1966 2 SI MM DENISE 1966-01-06 15:00:00 TS -18.2507 58.9380 main 237 202 P____P___PP_P_ SH121966 -18.2424 58.6849 -1 -18.2427 59.3151 99 -18.2424 58.6849 TC 35 -18.2833 58.6901 2 -18.2427 59.3151 TC 85 9 236
1966003S10075 1966 2 SI MM DENISE 1966-01-06 18:00:00 TS -18.5000 58.5600 reunion main 202 165 O____O___OO_O_ jtwc_sh SH121966 -18.5000 58.4000 -1 -18.5000 58.8000 99 9.90000 -18.5000 58.4000 TC 35 -18.5000 58.4000 2 -18.5000 58.8000 TC 85 8 235
1966003S10075 1966 2 SI MM DENISE 1966-01-06 21:00:00 TS -18.7394 58.2152 main 165 124 P____P___PP_P_ SH121966 -18.7500 58.0999 -1 -18.7272 58.3996 99 -18.7500 58.0999 TC 35 -18.7426 58.0773 2 -18.7272 58.3996 TC 85 8 233
1966003S10075 1966 2 SI MM DENISE 1966-01-07 00:00:00 TS -18.9985 57.8740 reunion main 124 89 O____O___OP_O_ jtwc_sh SH121966 -19.0000 57.8000 -1 -19.0000 58.0000 99 9.90000 -19.0000 57.8000 TC 35 -18.9923 57.7698 2 -19.0000 58.0000 TC 85 9 230
1966003S10075 1966 2 SI MM DENISE 1966-01-07 03:00:00 TS -19.3122 57.4866 main 89 64 P____P___PP_P_ SH121966 -19.2500 57.4924 -1 -19.4077 57.4855 99 -19.2500 57.4924 TC 35 -19.2458 57.4773 2 -19.4077 57.4855 TC 85 9 229
1966003S10075 1966 2 SI MM DENISE 1966-01-07 06:00:00 TS -19.6200 57.1200 reunion main 69 61 O____O___OO_O_ jtwc_sh SH121966 -19.5000 57.2000 -1 -19.8000 57.0000 4 9.90000 -19.5000 57.2000 TC 35 -19.5000 57.2000 2 -19.8000 57.0000 TC 85 8 229
1966003S10075 1966 2 SI MM DENISE 1966-01-07 09:00:00 TS -19.8544 56.8315 main 76 76 P____P___PP_P_ SH121966 -19.7499 56.9424 -1 -20.0073 56.6545 4 -19.7499 56.9424 TC 35 -19.7576 56.9635 2 -20.0073 56.6545 TC 85 7 227
1966003S10075 1966 2 SI MM DENISE 1966-01-07 12:00:00 TS -20.0828 56.5874 reunion main 85 85 O____O___OP_O_ jtwc_sh SH121966 -20.0000 56.7000 -1 -20.2000 56.4000 99 9.90000 -20.0000 56.7000 TC 35 -20.0142 56.7367 2 -20.2000 56.4000 TC 85 7 220
1966003S10075 1966 2 SI MM DENISE 1966-01-07 15:00:00 TS -20.3696 56.3762 main 94 61 P____P___PP_P_ SH121966 -20.2573 56.4724 -1 -20.5347 56.2222 99 -20.2573 56.4724 TC 35 -20.2637 56.4916 2 -20.5347 56.2222 TC 85 7 217
1966003S10075 1966 2 SI MM DENISE 1966-01-07 18:00:00 TS -20.6600 56.1200 reunion main 53 11 O____O___OO_O_ jtwc_sh SH121966 -20.5000 56.2000 -1 -20.9000 56.0000 99 9.90000 -20.5000 56.2000 TC 35 -20.5000 56.2000 2 -20.9000 56.0000 TC 85 8 228
1966003S10075 1966 2 SI MM DENISE 1966-01-07 21:00:00 TS -20.9112 55.7250 main 11 0 P____P___PP_P_ SH121966 -20.7075 55.8299 -1 -21.2152 55.5801 99 -20.7075 55.8299 TC 35 -20.7108 55.8050 2 -21.2152 55.5801 TC 80 9 239
1966003S10075 1966 2 SI MM DENISE 1966-01-08 00:00:00 TS -21.1417 55.2730 reunion main 0 0 O____O___OP_O_ jtwc_sh SH121966 -20.9000 55.4000 -1 -21.5000 55.1000 99 9.90000 -20.9000 55.4000 TC 35 -20.9082 55.3650 2 -21.5000 55.1000 TC 75 10 241
1966003S10075 1966 2 SI MM DENISE 1966-01-08 03:00:00 TS -21.3693 54.8255 main 52 52 P____P___PP_P_ SH121966 -21.1001 54.9350 -1 -21.7725 54.6700 99 -21.1001 54.9350 TC 35 -21.1014 54.9174 2 -21.7725 54.6700 TC 75 9 241
1966003S10075 1966 2 SI MM DENISE 1966-01-08 06:00:00 TS -21.5800 54.4200 reunion main 98 98 O____O___OO_O_ jtwc_sh SH121966 -21.3000 54.5000 -1 -22.0000 54.3000 4 9.90000 -21.3000 54.5000 TC 35 -21.3000 54.5000 2 -22.0000 54.3000 TC 75 8 240
1966003S10075 1966 2 SI MM DENISE 1966-01-08 09:00:00 TS -21.7571 54.1159 main 136 136 P____P___PP_P_ SH121966 -21.4923 54.1773 -1 -22.1498 54.0347 4 -21.4923 54.1773 TC 35 -21.5011 54.1554 2 -22.1498 54.0347 TC 77 6 236
1966003S10075 1966 2 SI MM DENISE 1966-01-08 12:00:00 TS -21.9424 53.8493 reunion main 168 168 O____O___OP_O_ jtwc_sh SH121966 -21.7000 53.9000 -1 -22.3000 53.8000 99 9.90000 -21.7000 53.9000 TC 35 -21.7120 53.8467 2 -22.3000 53.8000 TC 80 7 231
1966003S10075 1966 2 SI MM DENISE 1966-01-08 15:00:00 TS -22.1854 53.5470 main 211 211 P____P___PP_P_ SH121966 -21.9425 53.5925 -1 -22.5501 53.4927 99 -21.9425 53.5925 TC 35 -21.9419 53.5647 2 -22.5501 53.4927 TC 77 7 228
1966003S10075 1966 2 SI MM DENISE 1966-01-08 18:00:00 TS -22.4400 53.2600 reunion main 240 240 O____O___OO_O_ jtwc_sh SH121966 -22.2000 53.3000 -1 -22.8000 53.2000 99 9.90000 -22.2000 53.3000 TC 35 -22.2000 53.3000 2 -22.8000 53.2000 TC 75 7 227
1966003S10075 1966 2 SI MM DENISE 1966-01-08 21:00:00 TS -22.6374 53.0176 main 278 278 P____P___PP_P_ SH121966 -22.4274 53.0422 -1 -22.9424 52.9922 99 -22.4274 53.0422 TC 35 -22.4475 53.0189 2 -22.9424 52.9922 TC 67 6 226
1966003S10075 1966 2 SI MM DENISE 1966-01-09 00:00:00 TS -22.8660 52.7909 reunion main 313 313 O____O___OP_O_ jtwc_sh SH121966 -22.7000 52.8000 -1 -23.1000 52.8000 99 9.90000 -22.7000 52.8000 TC 35 -22.7300 52.7544 2 -23.1000 52.8000 TC 60 7 219
1966003S10075 1966 2 SI MM DENISE 1966-01-09 03:00:00 TS -23.1875 52.5395 main 357 357 P____P___PP_P_ SH121966 -23.0475 52.5424 -1 -23.3850 52.5501 99 -23.0475 52.5424 TC 35 -23.0725 52.5126 2 -23.3850 52.5501 TC 55 8 212
1966003S10075 1966 2 SI MM DENISE 1966-01-09 06:00:00 MX -23.5800 52.3000 reunion main 401 401 O____O___OO_O_ jtwc_sh SH121966 -23.5000 52.3000 -1 -23.7000 52.3000 5 9.90000 -23.5000 52.3000 TC 35 -23.5000 52.3000 2 -23.7000 52.3000 EX 50 9 207
1966003S10075 1966 2 SI MM DENISE 1966-01-09 09:00:00 MX -24.0100 52.0811 main 445 441 P____P___PP_P_ SH121966 -24.0625 52.0776 -1 -23.9349 52.0922 5 -24.0625 52.0776 TC 35 -24.0549 52.0661 2 -23.9349 52.0922 EX 47 10 202
1966003S10075 1966 2 SI MM DENISE 1966-01-09 12:00:00 MX -24.4980 51.8935 reunion main 443 437 O____O___OP_O_ jtwc_sh SH121966 -24.7000 51.9000 -1 -24.2000 51.9000 99 9.90000 -24.7000 51.9000 TC 35 -24.6899 51.8677 2 -24.2000 51.9000 EX 45 11 197
1966003S10075 1966 2 SI MM DENISE 1966-01-09 15:00:00 MX -25.0420 51.7291 main 439 439 P____P___PP_P_ SH121966 -25.3650 51.7626 -1 -24.5625 51.6925 99 -25.3650 51.7626 TC 35 -25.3549 51.7352 2 -24.5625 51.6925 EX 42 11 193
1966003S10075 1966 2 SI MM DENISE 1966-01-09 18:00:00 MX -25.6000 51.6200 reunion main 449 449 O____O___OO_O_ jtwc_sh SH121966 -26.0000 51.7000 -1 -25.0000 51.5000 99 9.90000 -26.0000 51.7000 TC 35 -26.0000 51.7000 2 -25.0000 51.5000 EX 40 11 189
1966003S10075 1966 2 SI MM DENISE 1966-01-09 21:00:00 MX -26.1075 51.5476 main 457 457 P____P___PP_P_ SH121966 -26.5148 51.6829 -1 -25.4775 51.3127 99 -26.5148 51.6829 TC 35 -26.5530 51.7466 2 -25.4775 51.3127 EX 37 10 182
1966003S10075 1966 2 SI MM DENISE 1966-01-10 00:00:00 MX -26.6158 51.5797 reunion main 484 484 O____O___OP_O_ jtwc_sh SH121966 -27.0000 51.8000 -1 -26.0000 51.2000 99 9.90000 -27.0000 51.8000 TC 35 -27.0788 51.8983 2 -26.0000 51.2000 EX 35 11 171
1966003S10075 1966 2 SI MM DENISE 1966-01-10 03:00:00 MX -27.1460 51.7304 main 515 515 P____P___PP_P_ SH121966 -27.5500 52.0824 -1 -26.5198 51.1681 99 -27.5500 52.0824 TC 35 -27.5903 52.1508 2 -26.5198 51.1681 EX 32 12 160
1966003S10075 1966 2 SI MM DENISE 1966-01-10 06:00:00 MX -27.7000 52.0200 reunion main 573 573 O____O___OO_O_ jtwc_sh SH121966 -28.1000 52.5000 -1 -27.1000 51.3000 5 9.90000 -28.1000 52.5000 TC 35 -28.1000 52.5000 2 -27.1000 51.3000 EX 30 13 151
1966003S10075 1966 2 SI MM DENISE 1966-01-10 09:00:00 MX -28.2772 52.4264 main 642 642 P____P___PP_P_ SH121966 -28.6000 52.9705 -1 -27.7701 51.6324 5 -28.6000 52.9705 TC 35 -28.6459 52.9262 2 -27.7701 51.6324 EX 30 14 146
1966003S10075 1966 2 SI MM DENISE 1966-01-10 12:00:00 MX -28.8777 52.9287 reunion main 720 720 O____O___OP_O_ jtwc_sh SH121966 -29.1000 53.5000 -1 -28.5000 52.1000 99 9.90000 -29.1000 53.5000 TC 35 -29.1883 53.4433 2 -28.5000 52.1000 EX 30 15 144
1966003S10075 1966 2 SI MM DENISE 1966-01-10 15:00:00 MX -29.5082 53.4539 main 807 807 P____P___PP_P_ SH121966 -29.6574 54.0426 -1 -29.2575 52.5851 99 -29.6574 54.0426 TC 35 -29.7114 54.0141 2 -29.2575 52.5851 EX 30 16 141
1966003S10075 1966 2 SI MM DENISE 1966-01-10 18:00:00 MX -30.1333 54.1000 reunion main 893 893 O____O___OO_O_ jtwc_sh SH121966 -30.2000 54.6000 -1 -30.0000 53.1000 99 9.90000 -30.2000 54.6000 TC 35 -30.2000 54.6000 2 -30.0000 53.1000 EX 30 16 136
1966003S10075 1966 2 SI MM DENISE 1966-01-10 21:00:00 MX -30.6691 54.7686 main 987 987 P____P___PP_P_ SH121966 -30.6798 55.1505 -1 -30.6728 53.6041 99 -30.6798 55.1505 TC 30 -30.6439 55.1694 2 -30.6728 53.6041 EX 27 15 131
1966003S10075 1966 2 SI MM DENISE 1966-01-11 00:00:00 MX -31.1229 55.4149 reunion main 1060 1060 O____O___OP_O_ jtwc_sh SH121966 -31.1000 55.7000 -1 -31.3000 54.1000 6 9.90000 -31.1000 55.7000 TC 25 -31.0508 55.7211 2 -31.3000 54.1000 EX 25 15 122
1966003S10075 1966 2 SI MM DENISE 1966-01-11 03:00:00 TS -31.4544 56.2536 main 1130 1130 P________PP___ SH121966 -31.4655 56.2493 -1 6 -31.4655 56.2493 TC 25 -31.4323 56.2623 2 EX 14 120
1966003S10075 1966 2 SI MM DENISE 1966-01-11 06:00:00 TS -31.8000 56.8000 main 1167 O________OO___ jtwc_sh SH121966 -31.8000 56.8000 -1 -31.8000 56.8000 TC 25 -31.8000 56.8000 1 12 127

IBTrACS Databaseについて

本データベースは、米国NOAAが公開する1842年以降の世界の熱帯低気圧のベストトラックデータアーカイブInternational Best Track Archive for Climate Stewardship (IBTrACS)を、ウェブで閲覧しやすい形式に変換したものです。

最終更新日:2021-12-06